Blarney — WDF2810 — position and weather

sailwx.info

Track history (hours):
 
Tides and Currents Weather Stations Pressure Air Temp Water Temp Dewpoint Dewpoint Depression Visibility Wind Speed Wind Dir Waves Ship Positions

Blarney

Owner: Tug Blarney, LLC, Seattle, WA. More information available from US FCC via Universal Licensing System and Coast Guard Vessel Documentation Center.

Last reported at 2018-May-10 11:31 UTC. Time now 2018-Jun-19 02:44 UTC.
Position N 32°35' W 117°31'.
Warning: this ship's position is 39 days out of date.

Length 30 m; draft 4 m.

Type: Tow > 200 m length. MMSI: 367300280.

Date/timePositionNaut miles runAvg speedWind from/ knotsBaromVisibWave heightAir tempDewpointWater temp
2018-May-10 11:31N 32°35' W 117°31'0 4.7
2018-May-10 11:26N 32°35' W 117°31'2 4.7
2018-May-10 11:00N 32°36' W 117°32'2 4.8
2018-May-10 10:31N 32°38' W 117°34'2 4.7
2018-May-10 09:59N 32°40' W 117°36'5 4.8
2018-May-10 08:58N 32°44' W 117°39'6 4.8
2018-May-10 07:38N 32°50' W 117°43'1 4.8
2018-May-10 07:30N 32°50' W 117°43'4 4.7
2018-May-10 06:42N 32°54' W 117°46'2 4.8
2018-May-10 06:20N 32°55' W 117°47'2 4.7
2018-May-10 06:00N 32°56' W 117°48'2 4.9
2018-May-10 05:31N 32°58' W 117°50'3 4.9
2018-May-10 05:00N 33°00' W 117°51'4 5.1
2018-May-10 04:16N 33°03' W 117°54'1 5.2
2018-May-10 04:00N 33°04' W 117°55'3 5.1
2018-May-10 03:30N 33°07' W 117°56'3 5.3
2018-May-10 03:00N 33°09' W 117°58'3 5.4
2018-May-10 02:29N 33°11' W 118°00'3 5.3
2018-May-10 01:59N 33°13' W 118°02'4 5.4
2018-May-10 01:10N 33°17' W 118°04'1 5.4
2018-May-10 01:00N 33°18' W 118°05'18 5.3
2018-May-09 21:33N 33°35' W 118°13'0 5.1
2018-May-09 21:28N 33°36' W 118°13'2 4.6
2018-May-09 21:00N 33°38' W 118°13'2 4.6
2018-May-09 20:30N 33°40' W 118°12'2 4.8
2018-May-09 20:00N 33°42' W 118°11'2 3.4
2018-May-09 19:30N 33°44' W 118°12'1 2.9
2018-May-09 19:00N 33°44' W 118°13'0 0.3
2018-May-09 18:30N 33°44' W 118°13'0 0.1
2018-May-09 18:00N 33°44' W 118°13'0 0.0
2018-May-09 17:30N 33°44' W 118°13'0 0.0
2018-May-09 17:00N 33°44' W 118°13'0 0.0
2018-May-09 16:30N 33°44' W 118°13'0 0.0
2018-May-09 16:00N 33°44' W 118°13'0 0.0
2018-May-09 15:30N 33°44' W 118°13'0 0.0
2018-May-09 15:00N 33°44' W 118°13'0 0.0
2018-May-09 14:30N 33°44' W 118°13'0 0.0
2018-May-09 14:00N 33°44' W 118°13'0 0.0
2018-May-09 13:29N 33°44' W 118°13'0 0.0
2018-May-09 13:00N 33°44' W 118°13'0 0.8
2018-May-09 12:30N 33°45' W 118°13'2 3.5
2018-May-09 12:00N 33°46' W 118°13'0 0.0
2018-May-09 11:30N 33°46' W 118°13'0 0.0
2018-May-09 11:00N 33°46' W 118°13'0 0.0
2018-May-09 10:30N 33°46' W 118°13'0 0.0
2018-May-09 09:58N 33°46' W 118°13'0 0.0
2018-May-09 09:29N 33°46' W 118°13'0 0.0
2018-May-09 09:00N 33°46' W 118°13'0 0.0
2018-May-09 08:29N 33°46' W 118°13'0 0.0
2018-May-09 08:00N 33°46' W 118°13'0 0.0
2018-May-09 07:30N 33°46' W 118°13'0 0.0
2018-May-09 07:00N 33°46' W 118°13'0 0.0
2018-May-09 06:30N 33°46' W 118°13'0 0.0
2018-May-09 06:00N 33°46' W 118°13'0 0.0
2018-May-09 05:30N 33°46' W 118°13'0 0.0
2018-May-09 05:00N 33°46' W 118°13'0 0.0
2018-May-09 04:30N 33°46' W 118°13'0 0.0
2018-May-09 04:00N 33°46' W 118°13'0 0.0
2018-May-09 03:30N 33°46' W 118°13'0 0.0
2018-May-09 03:00N 33°46' W 118°13'0 0.0
2018-May-09 02:30N 33°46' W 118°13'0 0.0
2018-May-09 02:00N 33°46' W 118°13'0 0.0
2018-May-09 01:30N 33°46' W 118°13'0 0.0
2018-May-09 01:00N 33°46' W 118°13'0 0.0
2018-May-09 00:30N 33°46' W 118°13'0 0.0
2018-May-09 00:00N 33°46' W 118°13'2 3.6
2018-May-08 23:30N 33°45' W 118°13'3 5.8
2018-May-08 23:00N 33°44' W 118°16'0 0.0
2018-May-08 22:30N 33°44' W 118°16'0 0.0
2018-May-08 22:00N 33°44' W 118°16'0 0.0
2018-May-08 21:29N 33°44' W 118°16'0 0.0
2018-May-08 21:00N 33°44' W 118°16'0 0.0
2018-May-08 20:30N 33°44' W 118°16'0 0.0
2018-May-08 20:00N 33°44' W 118°16'0 0.0
2018-May-08 19:30N 33°44' W 118°16'2 4.5
2018-May-08 19:00N 33°44' W 118°14'3 5.6
2018-May-08 18:30N 33°46' W 118°13'0 0.0
2018-May-08 18:01N 33°46' W 118°13'0 0.0
2018-May-08 17:30N 33°46' W 118°13'  
2018-May-01 08:08N 33°46' W 118°13'0 0.4
2018-May-01 08:00N 33°46' W 118°13'1 2.4
2018-May-01 07:30N 33°45' W 118°13'36 6.9
2018-May-01 02:12N 33°57' W 118°54'2 7.9
2018-May-01 02:00N 33°58' W 118°56'4 7.6
2018-May-01 01:30N 33°60' W 118°60'4 7.4
2018-May-01 01:00N 34°01' W 119°04'4 7.4
2018-May-01 00:28N 34°03' W 119°08'4 8.1
2018-Apr-30 23:56N 34°06' W 119°12'4 8.0
2018-Apr-30 23:25N 34°08' W 119°16'4 8.0
2018-Apr-30 22:57N 34°10' W 119°20'4 8.1
2018-Apr-30 22:30N 34°13' W 119°23'4 8.1
2018-Apr-30 22:00N 34°15' W 119°27'5 7.9
2018-Apr-30 21:20N 34°18' W 119°32'3 7.9
2018-Apr-30 21:00N 34°20' W 119°35'4 7.8
2018-Apr-30 20:27N 34°23' W 119°39'3 6.2
2018-Apr-30 20:00N 34°25' W 119°41'1 1.8
2018-Apr-30 19:26N 34°24' W 119°40'4 8.5
2018-Apr-30 18:55N 34°21' W 119°36'510.1
2018-Apr-30 18:27N 34°18' W 119°32'510.0
2018-Apr-30 17:59N 34°15' W 119°27'1010.1
2018-Apr-30 16:58N 34°09' W 119°17'4 3.1
2018-Apr-30 15:43N 34°09' W 119°13'0 0.2
2018-Apr-30 15:18N 34°09' W 119°12'1 1.5
2018-Apr-30 14:56N 34°09' W 119°13'2 4.5
2018-Apr-30 14:26N 34°07' W 119°15'1 2.5
2018-Apr-30 13:57N 34°07' W 119°16'2 3.5
2018-Apr-30 13:29N 34°09' W 119°17'2 4.0
2018-Apr-30 13:00N 34°10' W 119°19'3 4.0
2018-Apr-30 12:17N 34°11' W 119°22'1 4.2
2018-Apr-30 11:58N 34°12' W 119°23'  
Track history (hours):
 
Tides and Currents Weather Stations Pressure Air Temp Water Temp Dewpoint Dewpoint Depression Visibility Wind Speed Wind Dir Waves Ship Positions

Blarney

Owner: Tug Blarney, LLC, Seattle, WA. More information available from US FCC via Universal Licensing System and Coast Guard Vessel Documentation Center.

Last reported at 2018-May-10 11:31 UTC. Time now 2018-Jun-19 02:44 UTC.
Position N 32°35' W 117°31'.
Warning: this ship's position is 39 days out of date.

Length 30 m; draft 4 m.

Type: Tow > 200 m length. MMSI: 367300280.

Date/timePositionNaut miles runAvg speedWind from/ knotsBaromVisibWave heightAir tempDewpointWater temp
2018-May-10 11:31N 32°35' W 117°31'0 4.7
2018-May-10 11:26N 32°35' W 117°31'2 4.7
2018-May-10 11:00N 32°36' W 117°32'2 4.8
2018-May-10 10:31N 32°38' W 117°34'2 4.7
2018-May-10 09:59N 32°40' W 117°36'5 4.8
2018-May-10 08:58N 32°44' W 117°39'6 4.8
2018-May-10 07:38N 32°50' W 117°43'1 4.8
2018-May-10 07:30N 32°50' W 117°43'4 4.7
2018-May-10 06:42N 32°54' W 117°46'2 4.8
2018-May-10 06:20N 32°55' W 117°47'2 4.7
2018-May-10 06:00N 32°56' W 117°48'2 4.9
2018-May-10 05:31N 32°58' W 117°50'3 4.9
2018-May-10 05:00N 33°00' W 117°51'4 5.1
2018-May-10 04:16N 33°03' W 117°54'1 5.2
2018-May-10 04:00N 33°04' W 117°55'3 5.1
2018-May-10 03:30N 33°07' W 117°56'3 5.3
2018-May-10 03:00N 33°09' W 117°58'3 5.4
2018-May-10 02:29N 33°11' W 118°00'3 5.3
2018-May-10 01:59N 33°13' W 118°02'4 5.4
2018-May-10 01:10N 33°17' W 118°04'1 5.4
2018-May-10 01:00N 33°18' W 118°05'18 5.3
2018-May-09 21:33N 33°35' W 118°13'0 5.1
2018-May-09 21:28N 33°36' W 118°13'2 4.6
2018-May-09 21:00N 33°38' W 118°13'2 4.6
2018-May-09 20:30N 33°40' W 118°12'2 4.8
2018-May-09 20:00N 33°42' W 118°11'2 3.4
2018-May-09 19:30N 33°44' W 118°12'1 2.9
2018-May-09 19:00N 33°44' W 118°13'0 0.3
2018-May-09 18:30N 33°44' W 118°13'0 0.1
2018-May-09 18:00N 33°44' W 118°13'0 0.0
2018-May-09 17:30N 33°44' W 118°13'0 0.0
2018-May-09 17:00N 33°44' W 118°13'0 0.0
2018-May-09 16:30N 33°44' W 118°13'0 0.0
2018-May-09 16:00N 33°44' W 118°13'0 0.0
2018-May-09 15:30N 33°44' W 118°13'0 0.0
2018-May-09 15:00N 33°44' W 118°13'0 0.0
2018-May-09 14:30N 33°44' W 118°13'0 0.0
2018-May-09 14:00N 33°44' W 118°13'0 0.0
2018-May-09 13:29N 33°44' W 118°13'0 0.0
2018-May-09 13:00N 33°44' W 118°13'0 0.8
2018-May-09 12:30N 33°45' W 118°13'2 3.5
2018-May-09 12:00N 33°46' W 118°13'0 0.0
2018-May-09 11:30N 33°46' W 118°13'0 0.0
2018-May-09 11:00N 33°46' W 118°13'0 0.0
2018-May-09 10:30N 33°46' W 118°13'0 0.0
2018-May-09 09:58N 33°46' W 118°13'0 0.0
2018-May-09 09:29N 33°46' W 118°13'0 0.0
2018-May-09 09:00N 33°46' W 118°13'0 0.0
2018-May-09 08:29N 33°46' W 118°13'0 0.0
2018-May-09 08:00N 33°46' W 118°13'0 0.0
2018-May-09 07:30N 33°46' W 118°13'0 0.0
2018-May-09 07:00N 33°46' W 118°13'0 0.0
2018-May-09 06:30N 33°46' W 118°13'0 0.0
2018-May-09 06:00N 33°46' W 118°13'0 0.0
2018-May-09 05:30N 33°46' W 118°13'0 0.0
2018-May-09 05:00N 33°46' W 118°13'0 0.0
2018-May-09 04:30N 33°46' W 118°13'0 0.0
2018-May-09 04:00N 33°46' W 118°13'0 0.0
2018-May-09 03:30N 33°46' W 118°13'0 0.0
2018-May-09 03:00N 33°46' W 118°13'0 0.0
2018-May-09 02:30N 33°46' W 118°13'0 0.0
2018-May-09 02:00N 33°46' W 118°13'0 0.0
2018-May-09 01:30N 33°46' W 118°13'0 0.0
2018-May-09 01:00N 33°46' W 118°13'0 0.0
2018-May-09 00:30N 33°46' W 118°13'0 0.0
2018-May-09 00:00N 33°46' W 118°13'2 3.6
2018-May-08 23:30N 33°45' W 118°13'3 5.8
2018-May-08 23:00N 33°44' W 118°16'0 0.0
2018-May-08 22:30N 33°44' W 118°16'0 0.0
2018-May-08 22:00N 33°44' W 118°16'0 0.0
2018-May-08 21:29N 33°44' W 118°16'0 0.0
2018-May-08 21:00N 33°44' W 118°16'0 0.0
2018-May-08 20:30N 33°44' W 118°16'0 0.0
2018-May-08 20:00N 33°44' W 118°16'0 0.0
2018-May-08 19:30N 33°44' W 118°16'2 4.5
2018-May-08 19:00N 33°44' W 118°14'3 5.6
2018-May-08 18:30N 33°46' W 118°13'0 0.0
2018-May-08 18:01N 33°46' W 118°13'0 0.0
2018-May-08 17:30N 33°46' W 118°13'  
2018-May-01 08:08N 33°46' W 118°13'0 0.4
2018-May-01 08:00N 33°46' W 118°13'1 2.4
2018-May-01 07:30N 33°45' W 118°13'36 6.9
2018-May-01 02:12N 33°57' W 118°54'2 7.9
2018-May-01 02:00N 33°58' W 118°56'4 7.6
2018-May-01 01:30N 33°60' W 118°60'4 7.4
2018-May-01 01:00N 34°01' W 119°04'4 7.4
2018-May-01 00:28N 34°03' W 119°08'4 8.1
2018-Apr-30 23:56N 34°06' W 119°12'4 8.0
2018-Apr-30 23:25N 34°08' W 119°16'4 8.0
2018-Apr-30 22:57N 34°10' W 119°20'4 8.1
2018-Apr-30 22:30N 34°13' W 119°23'4 8.1
2018-Apr-30 22:00N 34°15' W 119°27'5 7.9
2018-Apr-30 21:20N 34°18' W 119°32'3 7.9
2018-Apr-30 21:00N 34°20' W 119°35'4 7.8
2018-Apr-30 20:27N 34°23' W 119°39'3 6.2
2018-Apr-30 20:00N 34°25' W 119°41'1 1.8
2018-Apr-30 19:26N 34°24' W 119°40'4 8.5
2018-Apr-30 18:55N 34°21' W 119°36'510.1
2018-Apr-30 18:27N 34°18' W 119°32'510.0
2018-Apr-30 17:59N 34°15' W 119°27'1010.1
2018-Apr-30 16:58N 34°09' W 119°17'4 3.1
2018-Apr-30 15:43N 34°09' W 119°13'0 0.2
2018-Apr-30 15:18N 34°09' W 119°12'1 1.5
2018-Apr-30 14:56N 34°09' W 119°13'2 4.5
2018-Apr-30 14:26N 34°07' W 119°15'1 2.5
2018-Apr-30 13:57N 34°07' W 119°16'2 3.5
2018-Apr-30 13:29N 34°09' W 119°17'2 4.0
2018-Apr-30 13:00N 34°10' W 119°19'3 4.0
2018-Apr-30 12:17N 34°11' W 119°22'1 4.2
2018-Apr-30 11:58N 34°12' W 119°23'  

Dump ship's entire track history